sensor_id;sensor_type;location;lat;lon;timestamp;temperature;humidity
51175;DHT22;37240;50.104;20.010;2023-05-07T08:00:21;10.30;99.90
51175;DHT22;37240;50.104;20.010;2023-05-07T08:05:23;10.30;99.90
51175;DHT22;37240;50.104;20.010;2023-05-07T08:10:23;10.20;99.90
51175;DHT22;37240;50.104;20.010;2023-05-07T08:15:24;10.40;99.90
51175;DHT22;37240;50.104;20.010;2023-05-07T08:20:24;10.40;99.90
51175;DHT22;37240;50.104;20.010;2023-05-07T08:25:25;10.30;99.90
51175;DHT22;37240;50.104;20.010;2023-05-07T08:56:17;10.10;99.90
51175;DHT22;37240;50.104;20.010;2023-05-07T09:01:18;10.20;99.90
51175;DHT22;37240;50.104;20.010;2023-05-07T09:06:18;10.10;99.90
51175;DHT22;37240;50.104;20.010;2023-05-07T09:11:23;10.10;99.90
51175;DHT22;37240;50.104;20.010;2023-05-07T09:16:24;10.00;99.90
51175;DHT22;37240;50.104;20.010;2023-05-07T09:21:25;9.90;99.90
51175;DHT22;37240;50.104;20.010;2023-05-07T09:26:25;9.80;99.90
51175;DHT22;37240;50.104;20.010;2023-05-07T09:31:26;9.90;99.90
51175;DHT22;37240;50.104;20.010;2023-05-07T09:36:27;10.00;99.90
51175;DHT22;37240;50.104;20.010;2023-05-07T09:41:30;10.00;99.90
51175;DHT22;37240;50.104;20.010;2023-05-07T09:46:31;9.90;99.90
51175;DHT22;37240;50.104;20.010;2023-05-07T09:51:47;9.90;99.90
51175;DHT22;37240;50.104;20.010;2023-05-07T09:56:48;9.70;99.90
51175;DHT22;37240;50.104;20.010;2023-05-07T10:01:49;9.90;99.90
51175;DHT22;37240;50.104;20.010;2023-05-07T10:06:52;9.90;99.90
51175;DHT22;37240;50.104;20.010;2023-05-07T10:11:52;10.00;99.90
51175;DHT22;37240;50.104;20.010;2023-05-07T10:16:54;10.00;99.90
51175;DHT22;37240;50.104;20.010;2023-05-07T10:21:57;9.90;99.90
51175;DHT22;37240;50.104;20.010;2023-05-07T10:27:01;9.90;99.90
51175;DHT22;37240;50.104;20.010;2023-05-07T10:37:18;9.90;99.90
51175;DHT22;37240;50.104;20.010;2023-05-07T10:42:19;10.00;99.90
51175;DHT22;37240;50.104;20.010;2023-05-07T10:47:20;10.00;99.90
51175;DHT22;37240;50.104;20.010;2023-05-07T10:52:22;10.10;99.90
51175;DHT22;37240;50.104;20.010;2023-05-07T11:08:01;10.20;99.90
51175;DHT22;37240;50.104;20.010;2023-05-07T11:13:02;10.30;99.90
51175;DHT22;37240;50.104;20.010;2023-05-07T11:18:03;10.40;99.90
51175;DHT22;37240;50.104;20.010;2023-05-07T11:23:04;10.20;99.90
51175;DHT22;37240;50.104;20.010;2023-05-07T11:28:08;10.10;99.90
51175;DHT22;37240;50.104;20.010;2023-05-07T11:33:09;10.20;99.90
51175;DHT22;37240;50.104;20.010;2023-05-07T11:38:11;10.50;99.90
51175;DHT22;37240;50.104;20.010;2023-05-07T11:43:11;10.50;99.90
51175;DHT22;37240;50.104;20.010;2023-05-07T11:48:13;10.40;99.90
51175;DHT22;37240;50.104;20.010;2023-05-07T11:53:13;10.50;99.90
51175;DHT22;37240;50.104;20.010;2023-05-07T11:58:21;10.50;99.90
51175;DHT22;37240;50.104;20.010;2023-05-07T12:03:22;10.40;99.90
51175;DHT22;37240;50.104;20.010;2023-05-07T12:08:22;10.40;99.90
51175;DHT22;37240;50.104;20.010;2023-05-07T12:13:25;10.30;99.90
51175;DHT22;37240;50.104;20.010;2023-05-07T12:18:25;10.20;99.90
51175;DHT22;37240;50.104;20.010;2023-05-07T12:23:27;10.30;99.90
51175;DHT22;37240;50.104;20.010;2023-05-07T12:28:28;10.30;99.90
51175;DHT22;37240;50.104;20.010;2023-05-07T12:33:28;10.20;99.90
51175;DHT22;37240;50.104;20.010;2023-05-07T12:38:34;10.20;99.90
51175;DHT22;37240;50.104;20.010;2023-05-07T12:43:35;10.30;99.90
51175;DHT22;37240;50.104;20.010;2023-05-07T12:48:38;10.30;99.90
51175;DHT22;37240;50.104;20.010;2023-05-07T12:53:43;10.20;99.90
51175;DHT22;37240;50.104;20.010;2023-05-07T12:58:44;10.10;99.90
51175;DHT22;37240;50.104;20.010;2023-05-07T13:03:48;10.20;99.90
51175;DHT22;37240;50.104;20.010;2023-05-07T13:08:49;10.30;99.90
51175;DHT22;37240;50.104;20.010;2023-05-07T13:13:49;10.60;99.90
51175;DHT22;37240;50.104;20.010;2023-05-07T13:18:50;10.50;99.90
51175;DHT22;37240;50.104;20.010;2023-05-07T13:23:50;10.30;99.90
51175;DHT22;37240;50.104;20.010;2023-05-07T13:28:51;10.40;99.90
51175;DHT22;37240;50.104;20.010;2023-05-07T13:33:52;10.50;99.90
51175;DHT22;37240;50.104;20.010;2023-05-07T13:38:52;10.40;99.90
51175;DHT22;37240;50.104;20.010;2023-05-07T13:43:53;10.40;99.90
51175;DHT22;37240;50.104;20.010;2023-05-07T13:48:53;10.20;99.90
51175;DHT22;37240;50.104;20.010;2023-05-07T13:53:54;10.10;99.90
51175;DHT22;37240;50.104;20.010;2023-05-07T13:58:54;10.10;99.90
51175;DHT22;37240;50.104;20.010;2023-05-07T14:03:56;10.10;99.90
51175;DHT22;37240;50.104;20.010;2023-05-07T14:08:56;10.00;99.90
51175;DHT22;37240;50.104;20.010;2023-05-07T14:13:57;10.10;99.90
51175;DHT22;37240;50.104;20.010;2023-05-07T14:18:57;10.20;99.90
51175;DHT22;37240;50.104;20.010;2023-05-07T14:23:58;10.30;99.90
51175;DHT22;37240;50.104;20.010;2023-05-07T14:28:58;10.20;99.90
51175;DHT22;37240;50.104;20.010;2023-05-07T14:33:59;10.10;99.90
51175;DHT22;37240;50.104;20.010;2023-05-07T14:38:59;10.10;99.90
51175;DHT22;37240;50.104;20.010;2023-05-07T14:44:00;10.20;99.90
51175;DHT22;37240;50.104;20.010;2023-05-07T14:49:02;10.10;99.90
51175;DHT22;37240;50.104;20.010;2023-05-07T14:54:02;10.00;99.90
51175;DHT22;37240;50.104;20.010;2023-05-07T14:59:03;9.90;99.90
51175;DHT22;37240;50.104;20.010;2023-05-07T15:04:04;10.00;99.90
51175;DHT22;37240;50.104;20.010;2023-05-07T15:09:04;10.00;99.90
51175;DHT22;37240;50.104;20.010;2023-05-07T15:14:05;9.90;99.90
51175;DHT22;37240;50.104;20.010;2023-05-07T15:19:06;9.80;99.90
51175;DHT22;37240;50.104;20.010;2023-05-07T15:24:06;9.70;99.90
51175;DHT22;37240;50.104;20.010;2023-05-07T15:29:07;9.60;99.90
51175;DHT22;37240;50.104;20.010;2023-05-07T15:34:08;9.40;99.90
51175;DHT22;37240;50.104;20.010;2023-05-07T15:39:08;9.50;99.90
51175;DHT22;37240;50.104;20.010;2023-05-07T15:44:09;9.40;99.90
51175;DHT22;37240;50.104;20.010;2023-05-07T15:49:09;9.50;99.90
51175;DHT22;37240;50.104;20.010;2023-05-07T15:54:10;9.60;99.90
51175;DHT22;37240;50.104;20.010;2023-05-07T15:59:10;9.70;99.90
51175;DHT22;37240;50.104;20.010;2023-05-07T16:04:11;9.80;99.90
51175;DHT22;37240;50.104;20.010;2023-05-07T16:09:12;9.90;99.90
51175;DHT22;37240;50.104;20.010;2023-05-07T16:14:13;9.80;99.90
51175;DHT22;37240;50.104;20.010;2023-05-07T16:19:13;9.70;99.90
51175;DHT22;37240;50.104;20.010;2023-05-07T16:24:14;9.70;99.90
51175;DHT22;37240;50.104;20.010;2023-05-07T16:29:14;9.80;99.90
51175;DHT22;37240;50.104;20.010;2023-05-07T16:34:15;9.70;99.90
51175;DHT22;37240;50.104;20.010;2023-05-07T16:39:15;9.60;99.90
51175;DHT22;37240;50.104;20.010;2023-05-07T16:44:16;9.50;99.90
51175;DHT22;37240;50.104;20.010;2023-05-07T16:49:17;9.50;99.90
51175;DHT22;37240;50.104;20.010;2023-05-07T16:54:17;9.30;99.90
51175;DHT22;37240;50.104;20.010;2023-05-07T16:59:18;9.40;99.90
51175;DHT22;37240;50.104;20.010;2023-05-07T17:04:18;9.40;99.90
51175;DHT22;37240;50.104;20.010;2023-05-07T17:09:19;9.40;99.90
51175;DHT22;37240;50.104;20.010;2023-05-07T17:14:19;9.40;99.90
51175;DHT22;37240;50.104;20.010;2023-05-07T17:19:20;9.40;99.90
51175;DHT22;37240;50.104;20.010;2023-05-07T17:24:20;9.30;99.90
51175;DHT22;37240;50.104;20.010;2023-05-07T17:29:21;9.30;99.90
51175;DHT22;37240;50.104;20.010;2023-05-07T17:34:22;9.30;99.90
51175;DHT22;37240;50.104;20.010;2023-05-07T17:39:25;9.30;99.90
51175;DHT22;37240;50.104;20.010;2023-05-07T17:44:25;9.20;99.90
51175;DHT22;37240;50.104;20.010;2023-05-07T17:49:26;9.10;99.90
51175;DHT22;37240;50.104;20.010;2023-05-07T17:54:26;9.10;99.90
51175;DHT22;37240;50.104;20.010;2023-05-07T17:59:27;9.00;99.90
51175;DHT22;37240;50.104;20.010;2023-05-07T18:04:28;9.00;99.90
51175;DHT22;37240;50.104;20.010;2023-05-07T18:09:28;9.00;99.90
51175;DHT22;37240;50.104;20.010;2023-05-07T18:14:29;9.10;99.90
51175;DHT22;37240;50.104;20.010;2023-05-07T18:19:29;9.10;99.90
51175;DHT22;37240;50.104;20.010;2023-05-07T18:24:30;9.00;99.90
51175;DHT22;37240;50.104;20.010;2023-05-07T18:29:30;9.00;99.90
51175;DHT22;37240;50.104;20.010;2023-05-07T18:34:31;8.90;99.90
51175;DHT22;37240;50.104;20.010;2023-05-07T18:39:32;8.90;99.90
51175;DHT22;37240;50.104;20.010;2023-05-07T18:44:34;8.90;99.90
51175;DHT22;37240;50.104;20.010;2023-05-07T18:49:35;8.90;99.90
51175;DHT22;37240;50.104;20.010;2023-05-07T18:54:35;8.90;99.90
51175;DHT22;37240;50.104;20.010;2023-05-07T18:59:36;8.90;99.90
51175;DHT22;37240;50.104;20.010;2023-05-07T19:04:37;8.80;99.90
51175;DHT22;37240;50.104;20.010;2023-05-07T19:09:37;8.80;99.90
51175;DHT22;37240;50.104;20.010;2023-05-07T19:14:40;8.80;99.90
51175;DHT22;37240;50.104;20.010;2023-05-07T19:19:41;8.80;99.90
51175;DHT22;37240;50.104;20.010;2023-05-07T19:24:41;8.80;99.90
51175;DHT22;37240;50.104;20.010;2023-05-07T19:29:42;8.90;99.90
51175;DHT22;37240;50.104;20.010;2023-05-07T19:34:43;8.80;99.90
51175;DHT22;37240;50.104;20.010;2023-05-07T19:39:43;8.80;99.90
51175;DHT22;37240;50.104;20.010;2023-05-07T19:44:44;8.70;99.90
51175;DHT22;37240;50.104;20.010;2023-05-07T19:49:44;8.90;99.90
51175;DHT22;37240;50.104;20.010;2023-05-07T19:54:45;8.80;99.90
51175;DHT22;37240;50.104;20.010;2023-05-07T19:59:45;8.80;99.90
51175;DHT22;37240;50.104;20.010;2023-05-07T20:04:46;8.70;99.90
51175;DHT22;37240;50.104;20.010;2023-05-07T20:09:46;8.70;99.90
51175;DHT22;37240;50.104;20.010;2023-05-07T20:14:47;8.80;99.90
51175;DHT22;37240;50.104;20.010;2023-05-07T20:19:48;8.70;99.90
51175;DHT22;37240;50.104;20.010;2023-05-07T20:24:48;8.70;99.90
51175;DHT22;37240;50.104;20.010;2023-05-07T20:29:50;8.70;99.90
51175;DHT22;37240;50.104;20.010;2023-05-07T20:34:50;8.80;99.90
51175;DHT22;37240;50.104;20.010;2023-05-07T20:39:51;8.70;99.90
51175;DHT22;37240;50.104;20.010;2023-05-07T20:44:51;8.70;99.90
51175;DHT22;37240;50.104;20.010;2023-05-07T20:49:53;8.70;99.90
51175;DHT22;37240;50.104;20.010;2023-05-07T20:54:54;8.70;99.90
51175;DHT22;37240;50.104;20.010;2023-05-07T20:59:54;8.70;99.90
51175;DHT22;37240;50.104;20.010;2023-05-07T21:04:55;8.70;99.90
51175;DHT22;37240;50.104;20.010;2023-05-07T21:09:55;8.70;99.90
51175;DHT22;37240;50.104;20.010;2023-05-07T21:14:56;8.80;99.90
51175;DHT22;37240;50.104;20.010;2023-05-07T21:19:56;8.70;99.90
51175;DHT22;37240;50.104;20.010;2023-05-07T21:24:57;8.60;99.90
51175;DHT22;37240;50.104;20.010;2023-05-07T21:29:57;8.60;99.90
51175;DHT22;37240;50.104;20.010;2023-05-07T21:34:58;8.60;99.90
51175;DHT22;37240;50.104;20.010;2023-05-07T21:39:59;8.70;99.90
51175;DHT22;37240;50.104;20.010;2023-05-07T21:45:00;8.60;99.90
51175;DHT22;37240;50.104;20.010;2023-05-07T21:50:00;8.60;99.90
51175;DHT22;37240;50.104;20.010;2023-05-07T21:55:01;8.60;99.90
51175;DHT22;37240;50.104;20.010;2023-05-07T22:00:02;8.60;99.90
51175;DHT22;37240;50.104;20.010;2023-05-07T22:05:03;8.60;99.90
51175;DHT22;37240;50.104;20.010;2023-05-07T22:10:04;8.70;99.90
51175;DHT22;37240;50.104;20.010;2023-05-07T22:15:05;8.70;99.90
51175;DHT22;37240;50.104;20.010;2023-05-07T22:20:06;8.70;99.90
51175;DHT22;37240;50.104;20.010;2023-05-07T22:25:08;8.60;99.90
51175;DHT22;37240;50.104;20.010;2023-05-07T22:30:08;8.70;99.90
51175;DHT22;37240;50.104;20.010;2023-05-07T22:35:09;8.70;99.90
51175;DHT22;37240;50.104;20.010;2023-05-07T22:40:10;8.80;99.90
51175;DHT22;37240;50.104;20.010;2023-05-07T22:45:11;8.80;99.90
51175;DHT22;37240;50.104;20.010;2023-05-07T22:50:11;8.80;99.90
51175;DHT22;37240;50.104;20.010;2023-05-07T22:55:12;8.80;99.90
51175;DHT22;37240;50.104;20.010;2023-05-07T23:00:13;8.70;99.90
51175;DHT22;37240;50.104;20.010;2023-05-07T23:05:13;8.60;99.90
51175;DHT22;37240;50.104;20.010;2023-05-07T23:10:14;8.60;99.90
51175;DHT22;37240;50.104;20.010;2023-05-07T23:15:18;8.50;99.90
51175;DHT22;37240;50.104;20.010;2023-05-07T23:20:19;8.60;99.90
51175;DHT22;37240;50.104;20.010;2023-05-07T23:25:19;8.60;99.90
51175;DHT22;37240;50.104;20.010;2023-05-07T23:30:20;8.60;99.90
51175;DHT22;37240;50.104;20.010;2023-05-07T23:35:21;8.60;99.90
51175;DHT22;37240;50.104;20.010;2023-05-07T23:40:21;8.60;99.90
51175;DHT22;37240;50.104;20.010;2023-05-07T23:45:22;8.50;99.90
51175;DHT22;37240;50.104;20.010;2023-05-07T23:50:22;8.40;99.90
51175;DHT22;37240;50.104;20.010;2023-05-07T23:55:23;8.40;99.90
